sensor_id;sensor_type;location;lat;lon;timestamp;temperature;humidity
3954;DHT22;1991;48.682;9.030;2023-03-20T00:00:58;8.50;99.90
3954;DHT22;1991;48.682;9.030;2023-03-20T00:03:23;8.60;99.90
3954;DHT22;1991;48.682;9.030;2023-03-20T00:05:49;8.60;99.90
3954;DHT22;1991;48.682;9.030;2023-03-20T00:08:15;8.60;99.90
3954;DHT22;1991;48.682;9.030;2023-03-20T00:10:43;8.60;99.90
3954;DHT22;1991;48.682;9.030;2023-03-20T00:13:14;8.60;99.90
3954;DHT22;1991;48.682;9.030;2023-03-20T00:15:42;8.60;99.90
3954;DHT22;1991;48.682;9.030;2023-03-20T00:18:20;8.60;99.90
3954;DHT22;1991;48.682;9.030;2023-03-20T00:20:48;8.60;99.90
3954;DHT22;1991;48.682;9.030;2023-03-20T00:23:14;8.60;99.90
3954;DHT22;1991;48.682;9.030;2023-03-20T00:25:42;8.60;99.90
3954;DHT22;1991;48.682;9.030;2023-03-20T00:31:23;8.60;99.90
3954;DHT22;1991;48.682;9.030;2023-03-20T00:33:51;8.60;99.90
3954;DHT22;1991;48.682;9.030;2023-03-20T00:36:17;8.60;99.90
3954;DHT22;1991;48.682;9.030;2023-03-20T00:38:42;8.60;99.90
3954;DHT22;1991;48.682;9.030;2023-03-20T00:46:45;8.60;99.90
3954;DHT22;1991;48.682;9.030;2023-03-20T00:49:11;8.60;99.90
3954;DHT22;1991;48.682;9.030;2023-03-20T00:51:36;8.60;99.90
3954;DHT22;1991;48.682;9.030;2023-03-20T00:54:12;8.60;99.90
3954;DHT22;1991;48.682;9.030;2023-03-20T00:57:02;8.60;99.90
3954;DHT22;1991;48.682;9.030;2023-03-20T00:59:41;8.50;99.90
3954;DHT22;1991;48.682;9.030;2023-03-20T01:02:11;8.50;99.90
3954;DHT22;1991;48.682;9.030;2023-03-20T01:04:39;8.50;99.90
3954;DHT22;1991;48.682;9.030;2023-03-20T01:07:09;8.50;99.90
3954;DHT22;1991;48.682;9.030;2023-03-20T01:09:36;8.50;99.90
3954;DHT22;1991;48.682;9.030;2023-03-20T01:12:03;8.50;99.90
3954;DHT22;1991;48.682;9.030;2023-03-20T01:14:29;8.40;99.90
3954;DHT22;1991;48.682;9.030;2023-03-20T01:16:54;8.40;99.90
3954;DHT22;1991;48.682;9.030;2023-03-20T01:19:20;8.40;99.90
3954;DHT22;1991;48.682;9.030;2023-03-20T01:21:46;8.40;99.90
3954;DHT22;1991;48.682;9.030;2023-03-20T01:24:11;8.30;99.90
3954;DHT22;1991;48.682;9.030;2023-03-20T01:26:39;8.30;99.90
3954;DHT22;1991;48.682;9.030;2023-03-20T01:29:23;8.20;99.90
3954;DHT22;1991;48.682;9.030;2023-03-20T01:31:50;8.20;99.90
3954;DHT22;1991;48.682;9.030;2023-03-20T01:34:16;8.10;99.90
3954;DHT22;1991;48.682;9.030;2023-03-20T01:36:51;8.10;99.90
3954;DHT22;1991;48.682;9.030;2023-03-20T01:39:19;8.10;99.90
3954;DHT22;1991;48.682;9.030;2023-03-20T01:41:47;8.00;99.90
3954;DHT22;1991;48.682;9.030;2023-03-20T01:44:22;7.90;99.90
3954;DHT22;1991;48.682;9.030;2023-03-20T01:46:51;7.90;99.90
3954;DHT22;1991;48.682;9.030;2023-03-20T01:51:43;7.90;99.90
3954;DHT22;1991;48.682;9.030;2023-03-20T01:54:16;7.90;99.90
3954;DHT22;1991;48.682;9.030;2023-03-20T01:57:04;7.90;99.90
3954;DHT22;1991;48.682;9.030;2023-03-20T01:59:43;7.90;99.90
3954;DHT22;1991;48.682;9.030;2023-03-20T02:02:13;8.00;99.90
3954;DHT22;1991;48.682;9.030;2023-03-20T02:04:41;8.10;99.90
3954;DHT22;1991;48.682;9.030;2023-03-20T02:07:09;8.10;99.90
3954;DHT22;1991;48.682;9.030;2023-03-20T02:09:35;8.10;99.90
3954;DHT22;1991;48.682;9.030;2023-03-20T02:12:02;8.10;99.90
3954;DHT22;1991;48.682;9.030;2023-03-20T02:14:28;8.10;99.90
3954;DHT22;1991;48.682;9.030;2023-03-20T02:16:54;8.20;99.90
3954;DHT22;1991;48.682;9.030;2023-03-20T02:44:57;8.30;99.90
3954;DHT22;1991;48.682;9.030;2023-03-20T02:47:48;8.30;99.90
3954;DHT22;1991;48.682;9.030;2023-03-20T03:01:10;8.30;99.90
3954;DHT22;1991;48.682;9.030;2023-03-20T03:06:20;8.10;99.90
3954;DHT22;1991;48.682;9.030;2023-03-20T03:08:50;8.20;99.90
3954;DHT22;1991;48.682;9.030;2023-03-20T03:11:18;8.10;99.90
3954;DHT22;1991;48.682;9.030;2023-03-20T03:13:49;8.10;99.90
3954;DHT22;1991;48.682;9.030;2023-03-20T03:16:22;8.10;99.90
3954;DHT22;1991;48.682;9.030;2023-03-20T03:19:01;8.10;99.90
3954;DHT22;1991;48.682;9.030;2023-03-20T03:21:28;8.10;99.90
3954;DHT22;1991;48.682;9.030;2023-03-20T03:23:54;8.10;99.90
3954;DHT22;1991;48.682;9.030;2023-03-20T03:26:24;8.10;99.90
3954;DHT22;1991;48.682;9.030;2023-03-20T03:28:55;8.10;99.90
3954;DHT22;1991;48.682;9.030;2023-03-20T03:31:22;8.20;99.90
3954;DHT22;1991;48.682;9.030;2023-03-20T03:33:55;8.20;99.90
3954;DHT22;1991;48.682;9.030;2023-03-20T03:36:44;8.20;99.90
3954;DHT22;1991;48.682;9.030;2023-03-20T03:39:26;8.20;99.90
3954;DHT22;1991;48.682;9.030;2023-03-20T03:42:10;8.10;99.90
3954;DHT22;1991;48.682;9.030;2023-03-20T03:44:54;8.20;99.90
3954;DHT22;1991;48.682;9.030;2023-03-20T03:47:30;8.20;99.90
3954;DHT22;1991;48.682;9.030;2023-03-20T03:50:13;8.20;99.90
3954;DHT22;1991;48.682;9.030;2023-03-20T03:52:41;8.10;99.90
3954;DHT22;1991;48.682;9.030;2023-03-20T03:55:18;8.10;99.90
3954;DHT22;1991;48.682;9.030;2023-03-20T03:57:48;8.20;99.90
3954;DHT22;1991;48.682;9.030;2023-03-20T04:00:18;8.10;99.90
3954;DHT22;1991;48.682;9.030;2023-03-20T04:02:48;8.10;99.90
3954;DHT22;1991;48.682;9.030;2023-03-20T04:05:17;8.10;99.90
3954;DHT22;1991;48.682;9.030;2023-03-20T04:07:45;8.10;99.90
3954;DHT22;1991;48.682;9.030;2023-03-20T04:10:11;8.10;99.90
3954;DHT22;1991;48.682;9.030;2023-03-20T04:12:40;8.10;99.90
3954;DHT22;1991;48.682;9.030;2023-03-20T04:15:06;8.10;99.90
3954;DHT22;1991;48.682;9.030;2023-03-20T04:17:32;8.10;99.90
3954;DHT22;1991;48.682;9.030;2023-03-20T04:19:58;8.10;99.90
3954;DHT22;1991;48.682;9.030;2023-03-20T04:22:24;8.10;99.90
3954;DHT22;1991;48.682;9.030;2023-03-20T04:24:49;8.10;99.90
3954;DHT22;1991;48.682;9.030;2023-03-20T04:27:15;8.10;99.90
3954;DHT22;1991;48.682;9.030;2023-03-20T04:29:41;8.10;99.90
3954;DHT22;1991;48.682;9.030;2023-03-20T04:32:07;8.10;99.90
3954;DHT22;1991;48.682;9.030;2023-03-20T04:34:33;8.00;99.90
3954;DHT22;1991;48.682;9.030;2023-03-20T04:36:58;8.00;99.90
3954;DHT22;1991;48.682;9.030;2023-03-20T04:39:25;7.80;99.90
3954;DHT22;1991;48.682;9.030;2023-03-20T04:41:51;7.60;99.90
3954;DHT22;1991;48.682;9.030;2023-03-20T04:44:17;7.50;99.90
3954;DHT22;1991;48.682;9.030;2023-03-20T04:46:42;7.40;99.90
3954;DHT22;1991;48.682;9.030;2023-03-20T04:49:08;7.30;99.90
3954;DHT22;1991;48.682;9.030;2023-03-20T04:51:33;7.20;99.90
3954;DHT22;1991;48.682;9.030;2023-03-20T04:53:59;7.20;99.90
3954;DHT22;1991;48.682;9.030;2023-03-20T04:56:25;7.10;99.90
3954;DHT22;1991;48.682;9.030;2023-03-20T04:58:50;7.10;99.90
3954;DHT22;1991;48.682;9.030;2023-03-20T05:01:16;7.10;99.90
3954;DHT22;1991;48.682;9.030;2023-03-20T05:03:41;7.10;99.90
3954;DHT22;1991;48.682;9.030;2023-03-20T05:06:07;7.10;99.90
3954;DHT22;1991;48.682;9.030;2023-03-20T05:08:33;7.20;99.90
3954;DHT22;1991;48.682;9.030;2023-03-20T05:10:59;7.20;99.90
3954;DHT22;1991;48.682;9.030;2023-03-20T05:13:24;7.30;99.90
3954;DHT22;1991;48.682;9.030;2023-03-20T05:15:50;7.30;99.90
3954;DHT22;1991;48.682;9.030;2023-03-20T05:18:16;7.40;99.90
3954;DHT22;1991;48.682;9.030;2023-03-20T05:20:41;7.40;99.90
3954;DHT22;1991;48.682;9.030;2023-03-20T05:23:07;7.50;99.90
3954;DHT22;1991;48.682;9.030;2023-03-20T05:25:33;7.60;99.90
3954;DHT22;1991;48.682;9.030;2023-03-20T05:27:58;7.60;99.90
3954;DHT22;1991;48.682;9.030;2023-03-20T05:30:24;7.60;99.90
3954;DHT22;1991;48.682;9.030;2023-03-20T05:32:50;7.70;99.90
3954;DHT22;1991;48.682;9.030;2023-03-20T05:35:17;7.80;99.90
3954;DHT22;1991;48.682;9.030;2023-03-20T05:37:43;7.80;99.90
3954;DHT22;1991;48.682;9.030;2023-03-20T05:40:14;7.80;99.90
3954;DHT22;1991;48.682;9.030;2023-03-20T05:42:40;7.80;99.90
3954;DHT22;1991;48.682;9.030;2023-03-20T05:45:06;7.80;99.90
3954;DHT22;1991;48.682;9.030;2023-03-20T05:47:32;7.80;99.90
3954;DHT22;1991;48.682;9.030;2023-03-20T05:49:58;7.90;99.90
3954;DHT22;1991;48.682;9.030;2023-03-20T05:52:23;7.90;99.90
3954;DHT22;1991;48.682;9.030;2023-03-20T05:54:49;7.90;99.90
3954;DHT22;1991;48.682;9.030;2023-03-20T05:57:15;7.90;99.90
3954;DHT22;1991;48.682;9.030;2023-03-20T05:59:41;7.90;99.90
3954;DHT22;1991;48.682;9.030;2023-03-20T06:02:07;8.00;99.90
3954;DHT22;1991;48.682;9.030;2023-03-20T06:04:32;8.00;99.90
3954;DHT22;1991;48.682;9.030;2023-03-20T06:06:59;8.10;99.90
3954;DHT22;1991;48.682;9.030;2023-03-20T06:09:25;8.20;99.90
3954;DHT22;1991;48.682;9.030;2023-03-20T06:11:51;8.20;99.90
3954;DHT22;1991;48.682;9.030;2023-03-20T06:14:16;8.20;99.90
3954;DHT22;1991;48.682;9.030;2023-03-20T06:16:42;8.30;99.90
3954;DHT22;1991;48.682;9.030;2023-03-20T06:19:07;8.40;99.90
3954;DHT22;1991;48.682;9.030;2023-03-20T06:21:33;8.50;99.90
3954;DHT22;1991;48.682;9.030;2023-03-20T06:23:59;8.50;99.90
3954;DHT22;1991;48.682;9.030;2023-03-20T06:26:24;8.60;99.90
3954;DHT22;1991;48.682;9.030;2023-03-20T06:28:50;8.70;99.90
3954;DHT22;1991;48.682;9.030;2023-03-20T06:31:16;8.80;99.90
3954;DHT22;1991;48.682;9.030;2023-03-20T06:33:42;8.80;99.90
3954;DHT22;1991;48.682;9.030;2023-03-20T06:36:08;8.90;99.90
3954;DHT22;1991;48.682;9.030;2023-03-20T06:38:34;9.00;99.90
3954;DHT22;1991;48.682;9.030;2023-03-20T06:41:00;9.10;99.90
3954;DHT22;1991;48.682;9.030;2023-03-20T06:43:25;9.20;99.90
3954;DHT22;1991;48.682;9.030;2023-03-20T06:45:52;9.30;99.90
3954;DHT22;1991;48.682;9.030;2023-03-20T06:48:17;9.40;99.90
3954;DHT22;1991;48.682;9.030;2023-03-20T06:50:47;9.40;99.90
3954;DHT22;1991;48.682;9.030;2023-03-20T06:53:13;9.50;99.90
3954;DHT22;1991;48.682;9.030;2023-03-20T06:55:39;9.80;99.90
3954;DHT22;1991;48.682;9.030;2023-03-20T06:58:04;10.10;99.90
3954;DHT22;1991;48.682;9.030;2023-03-20T07:00:30;10.50;99.90
3954;DHT22;1991;48.682;9.030;2023-03-20T07:02:56;10.70;99.90
3954;DHT22;1991;48.682;9.030;2023-03-20T07:05:22;10.70;99.90
3954;DHT22;1991;48.682;9.030;2023-03-20T07:07:48;10.80;99.90
3954;DHT22;1991;48.682;9.030;2023-03-20T07:10:14;10.90;99.90
3954;DHT22;1991;48.682;9.030;2023-03-20T07:12:39;11.10;99.90
3954;DHT22;1991;48.682;9.030;2023-03-20T07:15:05;11.40;99.90
3954;DHT22;1991;48.682;9.030;2023-03-20T07:17:31;11.60;99.90
3954;DHT22;1991;48.682;9.030;2023-03-20T07:19:56;12.00;99.90
3954;DHT22;1991;48.682;9.030;2023-03-20T07:22:24;12.20;99.90
3954;DHT22;1991;48.682;9.030;2023-03-20T07:24:51;12.40;99.90
3954;DHT22;1991;48.682;9.030;2023-03-20T07:27:16;12.10;99.50
3954;DHT22;1991;48.682;9.030;2023-03-20T07:29:42;11.90;99.90
3954;DHT22;1991;48.682;9.030;2023-03-20T07:32:08;11.60;99.90
3954;DHT22;1991;48.682;9.030;2023-03-20T07:34:34;11.30;99.90
3954;DHT22;1991;48.682;9.030;2023-03-20T07:36:59;11.00;99.90
3954;DHT22;1991;48.682;9.030;2023-03-20T07:39:25;11.00;99.90
3954;DHT22;1991;48.682;9.030;2023-03-20T07:41:51;11.00;99.90
3954;DHT22;1991;48.682;9.030;2023-03-20T07:44:17;11.20;99.90
3954;DHT22;1991;48.682;9.030;2023-03-20T07:46:44;11.30;99.90
3954;DHT22;1991;48.682;9.030;2023-03-20T07:49:15;11.40;99.90
3954;DHT22;1991;48.682;9.030;2023-03-20T07:51:47;11.50;99.90
3954;DHT22;1991;48.682;9.030;2023-03-20T07:54:13;11.80;99.90
3954;DHT22;1991;48.682;9.030;2023-03-20T07:56:40;12.00;99.90
3954;DHT22;1991;48.682;9.030;2023-03-20T07:59:06;11.90;99.90
3954;DHT22;1991;48.682;9.030;2023-03-20T08:01:32;11.70;99.90
3954;DHT22;1991;48.682;9.030;2023-03-20T08:03:58;11.70;99.90
3954;DHT22;1991;48.682;9.030;2023-03-20T08:06:23;11.70;99.90
3954;DHT22;1991;48.682;9.030;2023-03-20T08:08:49;11.60;99.90
3954;DHT22;1991;48.682;9.030;2023-03-20T08:11:17;11.90;99.90
3954;DHT22;1991;48.682;9.030;2023-03-20T08:13:43;11.90;99.90
3954;DHT22;1991;48.682;9.030;2023-03-20T08:16:09;11.90;99.10
3954;DHT22;1991;48.682;9.030;2023-03-20T08:18:35;11.60;99.20
3954;DHT22;1991;48.682;9.030;2023-03-20T08:21:00;11.70;99.10
3954;DHT22;1991;48.682;9.030;2023-03-20T08:23:26;11.50;98.80
3954;DHT22;1991;48.682;9.030;2023-03-20T08:25:52;11.40;99.00
3954;DHT22;1991;48.682;9.030;2023-03-20T08:28:19;11.20;99.50
3954;DHT22;1991;48.682;9.030;2023-03-20T08:30:46;11.20;99.40
3954;DHT22;1991;48.682;9.030;2023-03-20T08:33:12;11.40;99.90
3954;DHT22;1991;48.682;9.030;2023-03-20T08:35:38;11.60;99.90
3954;DHT22;1991;48.682;9.030;2023-03-20T08:38:04;11.50;98.60
3954;DHT22;1991;48.682;9.030;2023-03-20T08:40:30;11.60;98.40
3954;DHT22;1991;48.682;9.030;2023-03-20T08:42:55;11.40;98.50
3954;DHT22;1991;48.682;9.030;2023-03-20T08:45:21;11.50;98.50
3954;DHT22;1991;48.682;9.030;2023-03-20T08:47:50;11.60;97.50
3954;DHT22;1991;48.682;9.030;2023-03-20T08:50:16;11.70;97.20
3954;DHT22;1991;48.682;9.030;2023-03-20T08:52:41;11.90;96.30
3954;DHT22;1991;48.682;9.030;2023-03-20T08:55:10;12.20;95.20
3954;DHT22;1991;48.682;9.030;2023-03-20T08:57:36;12.50;93.30
3954;DHT22;1991;48.682;9.030;2023-03-20T09:00:04;12.80;92.10
3954;DHT22;1991;48.682;9.030;2023-03-20T09:02:31;13.20;90.40
3954;DHT22;1991;48.682;9.030;2023-03-20T09:04:56;13.40;88.50
3954;DHT22;1991;48.682;9.030;2023-03-20T09:07:22;13.70;85.60
3954;DHT22;1991;48.682;9.030;2023-03-20T09:09:48;13.80;84.60
3954;DHT22;1991;48.682;9.030;2023-03-20T09:12:13;13.80;85.00
3954;DHT22;1991;48.682;9.030;2023-03-20T09:14:40;13.60;83.10
3954;DHT22;1991;48.682;9.030;2023-03-20T09:17:06;13.50;83.40
3954;DHT22;1991;48.682;9.030;2023-03-20T09:19:32;13.30;85.20
3954;DHT22;1991;48.682;9.030;2023-03-20T09:21:58;13.10;83.90
3954;DHT22;1991;48.682;9.030;2023-03-20T09:24:24;13.00;85.30
3954;DHT22;1991;48.682;9.030;2023-03-20T09:26:50;12.90;85.70
3954;DHT22;1991;48.682;9.030;2023-03-20T09:29:16;12.80;87.20
3954;DHT22;1991;48.682;9.030;2023-03-20T09:31:42;12.90;85.90
3954;DHT22;1991;48.682;9.030;2023-03-20T09:34:07;12.90;86.80
3954;DHT22;1991;48.682;9.030;2023-03-20T09:36:33;13.20;87.60
3954;DHT22;1991;48.682;9.030;2023-03-20T09:38:59;13.20;83.80
3954;DHT22;1991;48.682;9.030;2023-03-20T09:41:25;13.50;83.80
3954;DHT22;1991;48.682;9.030;2023-03-20T09:51:59;13.80;80.30
3954;DHT22;1991;48.682;9.030;2023-03-20T09:55:19;14.00;80.30
3954;DHT22;1991;48.682;9.030;2023-03-20T09:57:40;14.20;79.00
3954;DHT22;1991;48.682;9.030;2023-03-20T10:07:49;15.80;74.90
3954;DHT22;1991;48.682;9.030;2023-03-20T10:10:16;15.90;70.70
3954;DHT22;1991;48.682;9.030;2023-03-20T10:12:57;16.40;70.20
3954;DHT22;1991;48.682;9.030;2023-03-20T10:21:04;16.80;63.60
3954;DHT22;1991;48.682;9.030;2023-03-20T10:23:39;16.30;63.80
3954;DHT22;1991;48.682;9.030;2023-03-20T10:26:11;16.10;65.10
3954;DHT22;1991;48.682;9.030;2023-03-20T10:29:04;15.60;66.10
3954;DHT22;1991;48.682;9.030;2023-03-20T10:31:33;15.20;67.80
3954;DHT22;1991;48.682;9.030;2023-03-20T10:42:28;13.30;73.80
3954;DHT22;1991;48.682;9.030;2023-03-20T10:45:00;13.20;75.50
3954;DHT22;1991;48.682;9.030;2023-03-20T10:47:28;13.10;75.30
3954;DHT22;1991;48.682;9.030;2023-03-20T10:49:59;13.00;75.40
3954;DHT22;1991;48.682;9.030;2023-03-20T10:52:28;12.80;75.70
3954;DHT22;1991;48.682;9.030;2023-03-20T10:57:32;12.50;76.40
3954;DHT22;1991;48.682;9.030;2023-03-20T10:59:58;12.50;76.40
3954;DHT22;1991;48.682;9.030;2023-03-20T11:02:27;12.50;76.10
3954;DHT22;1991;48.682;9.030;2023-03-20T11:04:53;12.60;76.90
3954;DHT22;1991;48.682;9.030;2023-03-20T11:07:27;12.60;79.30
3954;DHT22;1991;48.682;9.030;2023-03-20T11:12:42;12.60;80.40
3954;DHT22;1991;48.682;9.030;2023-03-20T11:15:22;12.50;81.00
3954;DHT22;1991;48.682;9.030;2023-03-20T11:20:21;12.60;79.20
3954;DHT22;1991;48.682;9.030;2023-03-20T11:22:48;12.50;79.30
3954;DHT22;1991;48.682;9.030;2023-03-20T11:25:24;12.60;79.60
3954;DHT22;1991;48.682;9.030;2023-03-20T11:27:53;12.80;78.60
3954;DHT22;1991;48.682;9.030;2023-03-20T11:30:20;13.90;74.70
3954;DHT22;1991;48.682;9.030;2023-03-20T11:32:48;14.70;72.20
3954;DHT22;1991;48.682;9.030;2023-03-20T11:35:21;15.80;68.00
3954;DHT22;1991;48.682;9.030;2023-03-20T11:37:53;17.60;62.10
3954;DHT22;1991;48.682;9.030;2023-03-20T11:40:25;20.40;55.70
3954;DHT22;1991;48.682;9.030;2023-03-20T11:45:27;21.40;48.40
3954;DHT22;1991;48.682;9.030;2023-03-20T11:47:59;20.80;49.60
3954;DHT22;1991;48.682;9.030;2023-03-20T11:50:44;20.10;50.40
3954;DHT22;1991;48.682;9.030;2023-03-20T11:53:30;19.20;51.80
3954;DHT22;1991;48.682;9.030;2023-03-20T11:56:12;18.30;53.50
3954;DHT22;1991;48.682;9.030;2023-03-20T12:01:52;17.10;57.20
3954;DHT22;1991;48.682;9.030;2023-03-20T12:04:28;16.30;58.90
3954;DHT22;1991;48.682;9.030;2023-03-20T12:07:02;16.10;60.80
3954;DHT22;1991;48.682;9.030;2023-03-20T12:09:39;15.80;61.30
3954;DHT22;1991;48.682;9.030;2023-03-20T12:23:10;14.20;68.90
3954;DHT22;1991;48.682;9.030;2023-03-20T12:34:24;14.20;69.50
3954;DHT22;1991;48.682;9.030;2023-03-20T12:36:54;14.30;68.50
3954;DHT22;1991;48.682;9.030;2023-03-20T12:39:24;14.30;68.10
3954;DHT22;1991;48.682;9.030;2023-03-20T12:45:03;14.40;69.00
3954;DHT22;1991;48.682;9.030;2023-03-20T12:50:38;16.80;63.00
3954;DHT22;1991;48.682;9.030;2023-03-20T12:53:29;17.50;60.70
3954;DHT22;1991;48.682;9.030;2023-03-20T12:59:03;19.60;54.50
3954;DHT22;1991;48.682;9.030;2023-03-20T13:01:32;18.90;54.20
3954;DHT22;1991;48.682;9.030;2023-03-20T13:10:23;16.80;57.60
3954;DHT22;1991;48.682;9.030;2023-03-20T13:13:37;16.40;59.50
3954;DHT22;1991;48.682;9.030;2023-03-20T13:24:46;14.90;61.10
3954;DHT22;1991;48.682;9.030;2023-03-20T13:30:57;14.50;62.40
3954;DHT22;1991;48.682;9.030;2023-03-20T13:33:08;14.40;62.50
3954;DHT22;1991;48.682;9.030;2023-03-20T13:36:06;14.90;61.50
3954;DHT22;1991;48.682;9.030;2023-03-20T13:38:40;15.20;60.40
3954;DHT22;1991;48.682;9.030;2023-03-20T13:41:08;15.30;60.70
3954;DHT22;1991;48.682;9.030;2023-03-20T13:43:50;15.80;59.30
3954;DHT22;1991;48.682;9.030;2023-03-20T13:46:32;16.10;57.80
3954;DHT22;1991;48.682;9.030;2023-03-20T13:49:17;16.60;56.70
3954;DHT22;1991;48.682;9.030;2023-03-20T13:51:59;16.70;55.90
3954;DHT22;1991;48.682;9.030;2023-03-20T13:57:27;18.10;53.00
3954;DHT22;1991;48.682;9.030;2023-03-20T14:00:00;18.60;52.00
3954;DHT22;1991;48.682;9.030;2023-03-20T14:02:34;19.40;50.30
3954;DHT22;1991;48.682;9.030;2023-03-20T14:05:21;20.70;48.50
3954;DHT22;1991;48.682;9.030;2023-03-20T14:07:50;22.30;45.20
3954;DHT22;1991;48.682;9.030;2023-03-20T14:13:05;21.70;43.70
3954;DHT22;1991;48.682;9.030;2023-03-20T14:15:34;20.70;45.20
3954;DHT22;1991;48.682;9.030;2023-03-20T14:18:21;20.00;47.00
3954;DHT22;1991;48.682;9.030;2023-03-20T14:20:59;19.10;48.80
3954;DHT22;1991;48.682;9.030;2023-03-20T14:23:43;18.60;50.50
3954;DHT22;1991;48.682;9.030;2023-03-20T14:26:29;18.30;50.70
3954;DHT22;1991;48.682;9.030;2023-03-20T14:29:20;18.10;49.90
3954;DHT22;1991;48.682;9.030;2023-03-20T14:31:49;17.70;50.40
3954;DHT22;1991;48.682;9.030;2023-03-20T14:34:22;17.60;51.60
3954;DHT22;1991;48.682;9.030;2023-03-20T14:42:13;17.20;51.40
3954;DHT22;1991;48.682;9.030;2023-03-20T14:45:07;16.70;51.60
3954;DHT22;1991;48.682;9.030;2023-03-20T14:50:22;16.30;54.90
3954;DHT22;1991;48.682;9.030;2023-03-20T14:52:52;16.10;54.00
3954;DHT22;1991;48.682;9.030;2023-03-20T14:57:44;16.00;54.90
3954;DHT22;1991;48.682;9.030;2023-03-20T15:00:24;15.70;54.50
3954;DHT22;1991;48.682;9.030;2023-03-20T15:02:56;15.60;55.30
3954;DHT22;1991;48.682;9.030;2023-03-20T15:05:29;15.40;55.50
3954;DHT22;1991;48.682;9.030;2023-03-20T15:08:01;15.30;57.10
3954;DHT22;1991;48.682;9.030;2023-03-20T15:10:28;14.80;57.10
3954;DHT22;1991;48.682;9.030;2023-03-20T15:12:54;14.60;58.40
3954;DHT22;1991;48.682;9.030;2023-03-20T15:15:27;14.50;59.20
3954;DHT22;1991;48.682;9.030;2023-03-20T15:17:53;14.30;59.00
3954;DHT22;1991;48.682;9.030;2023-03-20T15:20:24;14.20;59.70
3954;DHT22;1991;48.682;9.030;2023-03-20T15:22:59;14.20;60.10
3954;DHT22;1991;48.682;9.030;2023-03-20T15:25:48;14.10;60.60
3954;DHT22;1991;48.682;9.030;2023-03-20T15:28:23;14.10;60.50
3954;DHT22;1991;48.682;9.030;2023-03-20T15:30:50;14.10;60.50
3954;DHT22;1991;48.682;9.030;2023-03-20T15:33:27;13.90;61.00
3954;DHT22;1991;48.682;9.030;2023-03-20T15:35:55;13.90;61.60
3954;DHT22;1991;48.682;9.030;2023-03-20T15:38:21;13.80;61.70
3954;DHT22;1991;48.682;9.030;2023-03-20T15:40:51;13.70;62.10
3954;DHT22;1991;48.682;9.030;2023-03-20T15:43:26;13.70;62.80
3954;DHT22;1991;48.682;9.030;2023-03-20T15:45:52;13.60;62.00
3954;DHT22;1991;48.682;9.030;2023-03-20T15:48:23;13.50;62.90
3954;DHT22;1991;48.682;9.030;2023-03-20T15:51:01;13.40;62.70
3954;DHT22;1991;48.682;9.030;2023-03-20T15:53:31;13.40;63.00
3954;DHT22;1991;48.682;9.030;2023-03-20T15:56:07;13.20;62.40
3954;DHT22;1991;48.682;9.030;2023-03-20T15:58:34;13.20;63.00
3954;DHT22;1991;48.682;9.030;2023-03-20T16:01:02;13.10;63.00
3954;DHT22;1991;48.682;9.030;2023-03-20T16:03:28;13.10;63.10
3954;DHT22;1991;48.682;9.030;2023-03-20T16:05:58;13.00;63.10
3954;DHT22;1991;48.682;9.030;2023-03-20T16:08:30;12.90;63.70
3954;DHT22;1991;48.682;9.030;2023-03-20T16:11:05;12.80;64.10
3954;DHT22;1991;48.682;9.030;2023-03-20T16:13:38;12.70;64.60
3954;DHT22;1991;48.682;9.030;2023-03-20T16:16:05;12.70;64.40
3954;DHT22;1991;48.682;9.030;2023-03-20T16:18:35;12.70;65.00
3954;DHT22;1991;48.682;9.030;2023-03-20T16:21:05;12.60;64.80
3954;DHT22;1991;48.682;9.030;2023-03-20T16:23:34;12.60;64.80
3954;DHT22;1991;48.682;9.030;2023-03-20T16:26:04;12.70;65.30
3954;DHT22;1991;48.682;9.030;2023-03-20T16:28:34;12.70;65.70
3954;DHT22;1991;48.682;9.030;2023-03-20T16:31:29;12.70;66.50
3954;DHT22;1991;48.682;9.030;2023-03-20T16:34:00;12.70;66.80
3954;DHT22;1991;48.682;9.030;2023-03-20T16:36:32;12.60;67.20
3954;DHT22;1991;48.682;9.030;2023-03-20T16:39:15;12.50;66.30
3954;DHT22;1991;48.682;9.030;2023-03-20T16:41:43;12.40;66.00
3954;DHT22;1991;48.682;9.030;2023-03-20T16:44:15;12.30;66.40
3954;DHT22;1991;48.682;9.030;2023-03-20T16:47:00;12.30;67.20
3954;DHT22;1991;48.682;9.030;2023-03-20T16:52:02;12.00;67.60
3954;DHT22;1991;48.682;9.030;2023-03-20T16:54:31;11.80;67.60
3954;DHT22;1991;48.682;9.030;2023-03-20T16:56:59;11.70;69.00
3954;DHT22;1991;48.682;9.030;2023-03-20T16:59:25;11.60;69.30
3954;DHT22;1991;48.682;9.030;2023-03-20T17:01:51;11.30;70.50
3954;DHT22;1991;48.682;9.030;2023-03-20T17:04:21;11.20;71.90
3954;DHT22;1991;48.682;9.030;2023-03-20T17:07:05;11.10;72.40
3954;DHT22;1991;48.682;9.030;2023-03-20T17:09:31;11.00;73.20
3954;DHT22;1991;48.682;9.030;2023-03-20T17:14:27;10.90;74.60
3954;DHT22;1991;48.682;9.030;2023-03-20T17:16:52;10.80;75.10
3954;DHT22;1991;48.682;9.030;2023-03-20T17:19:20;10.80;75.60
3954;DHT22;1991;48.682;9.030;2023-03-20T17:21:46;10.80;76.10
3954;DHT22;1991;48.682;9.030;2023-03-20T17:24:13;10.80;76.30
3954;DHT22;1991;48.682;9.030;2023-03-20T17:26:40;10.70;77.10
3954;DHT22;1991;48.682;9.030;2023-03-20T17:29:06;10.60;77.40
3954;DHT22;1991;48.682;9.030;2023-03-20T17:31:32;10.60;77.70
3954;DHT22;1991;48.682;9.030;2023-03-20T17:33:57;10.60;78.10
3954;DHT22;1991;48.682;9.030;2023-03-20T17:36:29;10.60;78.60
3954;DHT22;1991;48.682;9.030;2023-03-20T17:38:55;10.50;79.20
3954;DHT22;1991;48.682;9.030;2023-03-20T17:41:22;10.60;79.70
3954;DHT22;1991;48.682;9.030;2023-03-20T17:43:48;10.60;80.20
3954;DHT22;1991;48.682;9.030;2023-03-20T17:46:24;10.50;80.60
3954;DHT22;1991;48.682;9.030;2023-03-20T17:48:57;10.50;81.10
3954;DHT22;1991;48.682;9.030;2023-03-20T17:51:23;10.40;82.20
3954;DHT22;1991;48.682;9.030;2023-03-20T17:53:48;10.40;82.40
3954;DHT22;1991;48.682;9.030;2023-03-20T17:56:19;10.30;83.30
3954;DHT22;1991;48.682;9.030;2023-03-20T17:58:45;10.20;83.60
3954;DHT22;1991;48.682;9.030;2023-03-20T18:01:12;10.30;85.00
3954;DHT22;1991;48.682;9.030;2023-03-20T18:03:38;10.20;85.20
3954;DHT22;1991;48.682;9.030;2023-03-20T18:06:05;10.20;85.40
3954;DHT22;1991;48.682;9.030;2023-03-20T18:08:31;10.30;86.00
3954;DHT22;1991;48.682;9.030;2023-03-20T18:10:57;10.20;86.10
3954;DHT22;1991;48.682;9.030;2023-03-20T18:13:24;10.30;86.10
3954;DHT22;1991;48.682;9.030;2023-03-20T18:15:52;10.20;87.00
3954;DHT22;1991;48.682;9.030;2023-03-20T18:18:19;10.20;86.80
3954;DHT22;1991;48.682;9.030;2023-03-20T18:20:45;10.20;87.50
3954;DHT22;1991;48.682;9.030;2023-03-20T18:23:11;10.20;88.00
3954;DHT22;1991;48.682;9.030;2023-03-20T18:25:37;10.20;88.80
3954;DHT22;1991;48.682;9.030;2023-03-20T18:28:05;10.20;88.60
3954;DHT22;1991;48.682;9.030;2023-03-20T18:30:33;10.10;89.40
3954;DHT22;1991;48.682;9.030;2023-03-20T18:32:59;10.10;90.20
3954;DHT22;1991;48.682;9.030;2023-03-20T18:35:25;10.00;90.40
3954;DHT22;1991;48.682;9.030;2023-03-20T18:37:51;10.00;90.80
3954;DHT22;1991;48.682;9.030;2023-03-20T18:40:21;10.00;91.40
3954;DHT22;1991;48.682;9.030;2023-03-20T18:42:47;10.00;91.50
3954;DHT22;1991;48.682;9.030;2023-03-20T18:45:13;9.90;91.80
3954;DHT22;1991;48.682;9.030;2023-03-20T18:47:39;9.90;92.10
3954;DHT22;1991;48.682;9.030;2023-03-20T18:50:17;9.90;92.50
3954;DHT22;1991;48.682;9.030;2023-03-20T18:52:44;9.90;92.60
3954;DHT22;1991;48.682;9.030;2023-03-20T18:55:10;9.90;92.80
3954;DHT22;1991;48.682;9.030;2023-03-20T18:57:36;9.90;93.10
3954;DHT22;1991;48.682;9.030;2023-03-20T19:02:39;9.90;93.40
3954;DHT22;1991;48.682;9.030;2023-03-20T19:05:05;9.90;94.00
3954;DHT22;1991;48.682;9.030;2023-03-20T19:07:30;9.90;94.00